Pincher Creek Airport
CZPC : now visible

Airfield :











YOU CAN JOIN US ON...

 
LOGIN :

Register | Disclaimer

   EN    FR    IT 

 









Legend :    VFR   Marginal VFR   IFR   Intensive IFR   Very Intensive IFR
Visi :
Ceiling :
>= 8 km
>= 3000ft
5 to 8 km
1000 to 3000 ft
1500m to 5 km
500 to 1000 ft
800 to 1500m
200 to 500 ft
< 800m
< 200 ft
Symbols :   Thunderstorms  Fog  Heavy snow  Heavy precipitations  Wind > 20 kt






- Airport Elevation : 3903 ft


CZPC - Pincher Creek

CURRENT METAR :
  • 031400Z AUTO 24012G17KT 9SM CLR 17/08 A3001 RMK SLP136 DENSITY ALT 4900FT

EXPIRED METARs :
  • 031300Z AUTO 23013KT 9SM CLR 16/07 A2999 RMK SLP128 DENSITY ALT 4800FT
  • 031200Z AUTO 24011KT 9SM CLR 15/07 A2999 RMK SLP128 DENSITY ALT 4600FT
  • 031100Z AUTO 26008KT 9SM CLR 14/08 A2997 RMK SLP123 DENSITY ALT 4500FT

TAF N/A
CZEG FIR / North America



MET'MAP, your aeronautical weather chart ! - Copyright ORBIFLY December 2007 - Disclaimer

ORBIFLY MET'MAP TEAM :

Programming & Development : Alexandra Zaïnal
Concept & original design : Baudouin d'Aumeries
Assistance for programming : Marc-Olivier Méhu
Technical & hardware support : Manuel Goepfert

Contact : metmap@orbifly.com




SOURCES & CREDITS :

   NOAA       Earth
Advisory